MSC Florentina — HPFH — position and weather

sailwx.info

Track history (hours):
 
Tides and Currents Weather Stations Pressure Air Temp Water Temp Dewpoint Dewpoint Depression Visibility Wind Speed Wind Dir Waves Ship Positions

MSC Florentina

Last reported at 2014-Sep-22 00:13 UTC. Time now 2014-Sep-24 00:26 UTC.
Position N 29°30' W 094°52'.

Length 300 m; draft 10.8 m.

Type: Ship (hazmat cat A). MMSI: 352870000.

Date/timePositionNaut miles runAvg speedWind from/ knotsBaromVisibWave heightAir tempDewpointWater temp
2014-Sep-22 00:13N 29°30' W 094°52'812.3
2014-Sep-21 23:33N 29°36' W 094°57'3 2.7
2014-Sep-21 22:33N 29°37' W 095°00'0 0.0
2014-Sep-21 21:32N 29°37' W 095°00'0 0.0
2014-Sep-21 20:31N 29°37' W 095°00'0 0.0
2014-Sep-21 19:31N 29°37' W 095°00'0 0.0
2014-Sep-21 18:30N 29°37' W 095°00'0 0.0
2014-Sep-21 17:33N 29°37' W 095°00'0 0.0
2014-Sep-21 16:33N 29°37' W 095°00'0 0.0
2014-Sep-21 15:32N 29°37' W 095°00'0 0.0
2014-Sep-21 14:32N 29°37' W 095°00'0 0.0
2014-Sep-21 13:28N 29°37' W 095°00'0 0.0
2014-Sep-21 12:31N 29°37' W 095°00'0 0.0
2014-Sep-21 11:33N 29°37' W 095°00'0 0.0
2014-Sep-21 10:33N 29°37' W 095°00'0 0.0
2014-Sep-21 09:33N 29°37' W 095°00'0 0.0
2014-Sep-21 08:32N 29°37' W 095°00'0 0.0
2014-Sep-21 07:32N 29°37' W 095°00'0 0.0
2014-Sep-21 06:31N 29°37' W 095°00'0 0.0
2014-Sep-21 05:31N 29°37' W 095°00'0 0.0
2014-Sep-21 04:33N 29°37' W 095°00'0 0.0
2014-Sep-21 03:33N 29°37' W 095°00'0 0.0
2014-Sep-21 01:32N 29°37' W 095°00'0 0.0
2014-Sep-21 00:31N 29°37' W 095°00'0 0.0
2014-Sep-20 23:31N 29°37' W 095°00'0 0.1
2014-Sep-20 22:33N 29°37' W 095°00'2 1.8
2014-Sep-20 21:33N 29°37' W 094°58'1010.3
2014-Sep-20 20:33N 29°28' W 094°51'  
2014-Sep-17 00:17N 19°52' W 096°13'1216.4
2014-Sep-16 23:34N 19°41' W 096°08'1716.5
2014-Sep-16 22:34N 19°26' W 096°01'1413.9
2014-Sep-16 21:34N 19°12' W 096°01'7 6.6
2014-Sep-16 20:32N 19°13' W 096°08'0 0.0
2014-Sep-16 19:32N 19°13' W 096°08'0 0.0
2014-Sep-16 18:32N 19°13' W 096°08'0 0.0
2014-Sep-16 17:31N 19°13' W 096°08'0 0.0
2014-Sep-16 16:31N 19°13' W 096°08'0 0.0
2014-Sep-16 15:33N 19°13' W 096°08'0 0.0
2014-Sep-16 14:33N 19°13' W 096°08'0 0.0
2014-Sep-16 13:33N 19°13' W 096°08'0 0.0
2014-Sep-16 12:32N 19°13' W 096°08'0 0.0
2014-Sep-16 11:32N 19°13' W 096°08'0 0.0
2014-Sep-16 10:31N 19°13' W 096°08'0 0.0
2014-Sep-16 09:31N 19°13' W 096°08'0 0.0
2014-Sep-16 08:31N 19°13' W 096°08'0 0.0
2014-Sep-16 07:32N 19°13' W 096°08'0 0.0
2014-Sep-16 06:32N 19°13' W 096°08'0 0.0
2014-Sep-16 05:31N 19°13' W 096°08'0 0.0
2014-Sep-16 04:31N 19°13' W 096°08'0 0.0
2014-Sep-16 03:33N 19°13' W 096°08'0 0.0
2014-Sep-16 02:33N 19°13' W 096°08'0 0.1
2014-Sep-16 01:32N 19°13' W 096°08'6 6.0
2014-Sep-16 00:33N 19°12' W 096°02'1111.3
2014-Sep-15 23:34N 19°14' W 095°50'1111.0
2014-Sep-15 22:33N 19°18' W 095°39'  
2014-Sep-13 07:15N 25°54' W 079°33'1014.0
2014-Sep-13 06:33N 26°01' W 079°26'1615.5
2014-Sep-13 05:33N 26°11' W 079°13'  
Track history (hours):
 
Tides and Currents Weather Stations Pressure Air Temp Water Temp Dewpoint Dewpoint Depression Visibility Wind Speed Wind Dir Waves Ship Positions

MSC Florentina

Last reported at 2014-Sep-22 00:13 UTC. Time now 2014-Sep-24 00:26 UTC.
Position N 29°30' W 094°52'.

Length 300 m; draft 10.8 m.

Type: Ship (hazmat cat A). MMSI: 352870000.

Date/timePositionNaut miles runAvg speedWind from/ knotsBaromVisibWave heightAir tempDewpointWater temp
2014-Sep-22 00:13N 29°30' W 094°52'812.3
2014-Sep-21 23:33N 29°36' W 094°57'3 2.7
2014-Sep-21 22:33N 29°37' W 095°00'0 0.0
2014-Sep-21 21:32N 29°37' W 095°00'0 0.0
2014-Sep-21 20:31N 29°37' W 095°00'0 0.0
2014-Sep-21 19:31N 29°37' W 095°00'0 0.0
2014-Sep-21 18:30N 29°37' W 095°00'0 0.0
2014-Sep-21 17:33N 29°37' W 095°00'0 0.0
2014-Sep-21 16:33N 29°37' W 095°00'0 0.0
2014-Sep-21 15:32N 29°37' W 095°00'0 0.0
2014-Sep-21 14:32N 29°37' W 095°00'0 0.0
2014-Sep-21 13:28N 29°37' W 095°00'0 0.0
2014-Sep-21 12:31N 29°37' W 095°00'0 0.0
2014-Sep-21 11:33N 29°37' W 095°00'0 0.0
2014-Sep-21 10:33N 29°37' W 095°00'0 0.0
2014-Sep-21 09:33N 29°37' W 095°00'0 0.0
2014-Sep-21 08:32N 29°37' W 095°00'0 0.0
2014-Sep-21 07:32N 29°37' W 095°00'0 0.0
2014-Sep-21 06:31N 29°37' W 095°00'0 0.0
2014-Sep-21 05:31N 29°37' W 095°00'0 0.0
2014-Sep-21 04:33N 29°37' W 095°00'0 0.0
2014-Sep-21 03:33N 29°37' W 095°00'0 0.0
2014-Sep-21 01:32N 29°37' W 095°00'0 0.0
2014-Sep-21 00:31N 29°37' W 095°00'0 0.0
2014-Sep-20 23:31N 29°37' W 095°00'0 0.1
2014-Sep-20 22:33N 29°37' W 095°00'2 1.8
2014-Sep-20 21:33N 29°37' W 094°58'1010.3
2014-Sep-20 20:33N 29°28' W 094°51'  
2014-Sep-17 00:17N 19°52' W 096°13'1216.4
2014-Sep-16 23:34N 19°41' W 096°08'1716.5
2014-Sep-16 22:34N 19°26' W 096°01'1413.9
2014-Sep-16 21:34N 19°12' W 096°01'7 6.6
2014-Sep-16 20:32N 19°13' W 096°08'0 0.0
2014-Sep-16 19:32N 19°13' W 096°08'0 0.0
2014-Sep-16 18:32N 19°13' W 096°08'0 0.0
2014-Sep-16 17:31N 19°13' W 096°08'0 0.0
2014-Sep-16 16:31N 19°13' W 096°08'0 0.0
2014-Sep-16 15:33N 19°13' W 096°08'0 0.0
2014-Sep-16 14:33N 19°13' W 096°08'0 0.0
2014-Sep-16 13:33N 19°13' W 096°08'0 0.0
2014-Sep-16 12:32N 19°13' W 096°08'0 0.0
2014-Sep-16 11:32N 19°13' W 096°08'0 0.0
2014-Sep-16 10:31N 19°13' W 096°08'0 0.0
2014-Sep-16 09:31N 19°13' W 096°08'0 0.0
2014-Sep-16 08:31N 19°13' W 096°08'0 0.0
2014-Sep-16 07:32N 19°13' W 096°08'0 0.0
2014-Sep-16 06:32N 19°13' W 096°08'0 0.0
2014-Sep-16 05:31N 19°13' W 096°08'0 0.0
2014-Sep-16 04:31N 19°13' W 096°08'0 0.0
2014-Sep-16 03:33N 19°13' W 096°08'0 0.0
2014-Sep-16 02:33N 19°13' W 096°08'0 0.1
2014-Sep-16 01:32N 19°13' W 096°08'6 6.0
2014-Sep-16 00:33N 19°12' W 096°02'1111.3
2014-Sep-15 23:34N 19°14' W 095°50'1111.0
2014-Sep-15 22:33N 19°18' W 095°39'  
2014-Sep-13 07:15N 25°54' W 079°33'1014.0
2014-Sep-13 06:33N 26°01' W 079°26'1615.5
2014-Sep-13 05:33N 26°11' W 079°13'  

Dump ship's entire track history